الصفحة الرئيسية
METAR-TAF:

METAR-TAF

مطار :

مطار تطوان سانية الرمل

تطوان, المغرب

دائرة عرض: 35-35N, خط طول: 005-20W, ارتفاع: 10 متر

مراقبة الطقس الحالي

تاريخ ووقت الإصدار 28 دقيقة قبل الساعة 12:00UTC
ريح 14 عقدة من الغرب, الاتجاه يتراوح بين الغرب/الجنوب الغربي و الشمال الغربي
درجة الحرارة 20°درجة مئوية
الرطوبة 68%
ضغط 1026 hPa
الرؤية 10 كم أو أكثر
غيوم متفرقة على ارتفاع 3300 قدم

METAR: GMTN 261200Z 28014KT 240V320 9999 SCT033 20/14 Q1026 NOSIG

زمن: 13:28 (12:28 UTC)


TAF: مفقودة

أرصاد الطقس والتوقعات من أكثر من 4000 مطار (تقارير الطقس للمطار METAR والتنبؤ بالطقس بالمطارTAF).

المحطات المتاحة هي النقط الصفراء والحمراء على الخريطة.

حرك المؤشر فوق النقطة لمعرفة اسم المحطة.

ثم انقر لمعرفة أرصاد وتوقعات الطقس.

لتغيير الخارطة: اضغط على الأزرار الخضراء مع رمز الصليب الأسود للتكبير. على الزر الأخضر مع شرطة للتصغير، أو على الأسهم الخضراء للخرائط المجاورة.


METAR-TAF: